Atlas, Michigan
Current Conditions -  °F | °C
As of 10:53 PM on Tuesday 25 Nov 2014 (Local Time) from KFNT Reporting Station
Overcast Overcast  
Wind Chill: 27°   Ceiling: 2400
Heat Index: 32°   Visibility: 10mi
Dew Point: 22°   Wind: 5mph
Humidity: 66%   Direction: 250°WSW
Pressure: 30.19"   Gusts: NA
Location:  42.94°N, 83.53°W
Report Text: KFNT 260353Z 25004KT 10SM OVC024 00/M06 A3019 RMK AO2 SLP233 T00001056
Loading
Personal Weather Stations






























Interactive Weather Map New forecast layout! Learn more

10-Day Weather Forecast

Advertisements
Track Severe Weather on mobile